sensor_id;sensor_type;location;lat;lon;timestamp;P1;durP1;ratioP1;P2;durP2;ratioP2
53293;SDS011;39181;53.440;5.644;2022-08-01T00:01:14;6.38;;;2.10;;
53293;SDS011;39181;53.440;5.644;2022-08-01T00:03:40;7.63;;;1.80;;
53293;SDS011;39181;53.440;5.644;2022-08-01T00:06:05;9.32;;;1.70;;
53293;SDS011;39181;53.440;5.644;2022-08-01T00:08:31;8.88;;;1.60;;
53293;SDS011;39181;53.440;5.644;2022-08-01T00:10:57;4.60;;;1.40;;
53293;SDS011;39181;53.440;5.644;2022-08-01T00:13:22;6.38;;;1.10;;
53293;SDS011;39181;53.440;5.644;2022-08-01T00:15:48;6.95;;;1.42;;
53293;SDS011;39181;53.440;5.644;2022-08-01T00:18:13;6.05;;;1.23;;
53293;SDS011;39181;53.440;5.644;2022-08-01T00:20:39;4.10;;;0.95;;
53293;SDS011;39181;53.440;5.644;2022-08-01T00:23:04;6.57;;;1.30;;
53293;SDS011;39181;53.440;5.644;2022-08-01T00:25:30;10.68;;;1.33;;
53293;SDS011;39181;53.440;5.644;2022-08-01T00:27:56;7.78;;;1.60;;
53293;SDS011;39181;53.440;5.644;2022-08-01T00:30:21;16.52;;;2.65;;
53293;SDS011;39181;53.440;5.644;2022-08-01T00:32:47;17.17;;;2.65;;
53293;SDS011;39181;53.440;5.644;2022-08-01T00:35:12;17.08;;;3.20;;
53293;SDS011;39181;53.440;5.644;2022-08-01T00:37:38;16.88;;;2.78;;
53293;SDS011;39181;53.440;5.644;2022-08-01T00:40:04;12.95;;;2.28;;
53293;SDS011;39181;53.440;5.644;2022-08-01T00:42:30;13.48;;;2.88;;
53293;SDS011;39181;53.440;5.644;2022-08-01T00:44:56;15.70;;;2.90;;
53293;SDS011;39181;53.440;5.644;2022-08-01T00:47:22;16.17;;;2.35;;
53293;SDS011;39181;53.440;5.644;2022-08-01T00:49:47;13.25;;;2.45;;
53293;SDS011;39181;53.440;5.644;2022-08-01T00:52:13;13.73;;;2.67;;
53293;SDS011;39181;53.440;5.644;2022-08-01T00:54:39;15.73;;;2.92;;
53293;SDS011;39181;53.440;5.644;2022-08-01T00:57:05;11.40;;;2.55;;
53293;SDS011;39181;53.440;5.644;2022-08-01T00:59:30;13.48;;;2.60;;
53293;SDS011;39181;53.440;5.644;2022-08-01T01:01:56;16.23;;;2.65;;
53293;SDS011;39181;53.440;5.644;2022-08-01T01:04:22;10.30;;;2.20;;
53293;SDS011;39181;53.440;5.644;2022-08-01T01:06:57;10.93;;;2.20;;
53293;SDS011;39181;53.440;5.644;2022-08-01T01:15:14;13.80;;;2.60;;
53293;SDS011;39181;53.440;5.644;2022-08-01T01:17:41;14.23;;;2.75;;
53293;SDS011;39181;53.440;5.644;2022-08-01T01:20:13;14.38;;;2.55;;
53293;SDS011;39181;53.440;5.644;2022-08-01T01:27:57;10.38;;;2.42;;
53293;SDS011;39181;53.440;5.644;2022-08-01T01:30:53;14.05;;;2.08;;
53293;SDS011;39181;53.440;5.644;2022-08-01T01:33:21;14.40;;;2.28;;
53293;SDS011;39181;53.440;5.644;2022-08-01T01:35:51;11.35;;;2.10;;
53293;SDS011;39181;53.440;5.644;2022-08-01T01:38:23;10.93;;;2.00;;
53293;SDS011;39181;53.440;5.644;2022-08-01T01:40:51;7.03;;;1.55;;
53293;SDS011;39181;53.440;5.644;2022-08-01T01:43:18;11.15;;;2.35;;
53293;SDS011;39181;53.440;5.644;2022-08-01T01:45:45;9.70;;;1.63;;
53293;SDS011;39181;53.440;5.644;2022-08-01T01:48:16;13.05;;;2.13;;
53293;SDS011;39181;53.440;5.644;2022-08-01T01:50:45;7.50;;;2.47;;
53293;SDS011;39181;53.440;5.644;2022-08-01T01:53:12;17.38;;;2.22;;
53293;SDS011;39181;53.440;5.644;2022-08-01T01:55:40;14.35;;;2.30;;
53293;SDS011;39181;53.440;5.644;2022-08-01T01:58:08;17.92;;;2.67;;
53293;SDS011;39181;53.440;5.644;2022-08-01T02:00:38;11.02;;;2.30;;
53293;SDS011;39181;53.440;5.644;2022-08-01T02:03:06;12.52;;;2.03;;
53293;SDS011;39181;53.440;5.644;2022-08-01T02:05:33;13.88;;;2.47;;
53293;SDS011;39181;53.440;5.644;2022-08-01T02:08:01;17.38;;;2.85;;
53293;SDS011;39181;53.440;5.644;2022-08-01T02:10:29;16.67;;;2.92;;
53293;SDS011;39181;53.440;5.644;2022-08-01T02:12:57;21.08;;;2.58;;
53293;SDS011;39181;53.440;5.644;2022-08-01T02:15:24;25.67;;;2.63;;
53293;SDS011;39181;53.440;5.644;2022-08-01T02:17:53;19.77;;;2.70;;
53293;SDS011;39181;53.440;5.644;2022-08-01T02:20:21;20.10;;;2.70;;
53293;SDS011;39181;53.440;5.644;2022-08-01T02:22:48;15.52;;;2.92;;
53293;SDS011;39181;53.440;5.644;2022-08-01T02:25:22;20.77;;;3.42;;
53293;SDS011;39181;53.440;5.644;2022-08-01T02:30:32;15.43;;;2.40;;
53293;SDS011;39181;53.440;5.644;2022-08-01T02:33:04;18.45;;;2.58;;
53293;SDS011;39181;53.440;5.644;2022-08-01T02:35:35;16.48;;;2.35;;
53293;SDS011;39181;53.440;5.644;2022-08-01T02:38:03;17.02;;;2.00;;
53293;SDS011;39181;53.440;5.644;2022-08-01T02:40:32;14.05;;;2.13;;
53293;SDS011;39181;53.440;5.644;2022-08-01T02:43:02;15.30;;;2.60;;
53293;SDS011;39181;53.440;5.644;2022-08-01T02:45:30;15.48;;;2.50;;
53293;SDS011;39181;53.440;5.644;2022-08-01T02:48:03;16.52;;;2.30;;
53293;SDS011;39181;53.440;5.644;2022-08-01T02:50:34;19.05;;;2.50;;
53293;SDS011;39181;53.440;5.644;2022-08-01T02:53:02;17.70;;;2.38;;
53293;SDS011;39181;53.440;5.644;2022-08-01T02:55:31;11.98;;;2.45;;
53293;SDS011;39181;53.440;5.644;2022-08-01T02:57:58;17.20;;;3.22;;
53293;SDS011;39181;53.440;5.644;2022-08-01T03:00:27;18.42;;;2.95;;
53293;SDS011;39181;53.440;5.644;2022-08-01T03:02:54;14.88;;;2.42;;
53293;SDS011;39181;53.440;5.644;2022-08-01T03:05:22;17.90;;;2.38;;
53293;SDS011;39181;53.440;5.644;2022-08-01T03:07:50;12.10;;;2.53;;
53293;SDS011;39181;53.440;5.644;2022-08-01T03:10:18;12.43;;;2.08;;
53293;SDS011;39181;53.440;5.644;2022-08-01T03:12:44;15.18;;;2.20;;
53293;SDS011;39181;53.440;5.644;2022-08-01T03:15:11;18.00;;;2.30;;
53293;SDS011;39181;53.440;5.644;2022-08-01T03:17:39;14.48;;;2.28;;
53293;SDS011;39181;53.440;5.644;2022-08-01T03:20:08;14.88;;;1.90;;
53293;SDS011;39181;53.440;5.644;2022-08-01T03:22:37;18.45;;;2.83;;
53293;SDS011;39181;53.440;5.644;2022-08-01T03:25:05;19.55;;;3.08;;
53293;SDS011;39181;53.440;5.644;2022-08-01T03:27:31;13.65;;;2.63;;
53293;SDS011;39181;53.440;5.644;2022-08-01T03:30:00;11.55;;;2.20;;
53293;SDS011;39181;53.440;5.644;2022-08-01T03:32:28;15.50;;;2.05;;
53293;SDS011;39181;53.440;5.644;2022-08-01T03:34:55;15.15;;;2.53;;
53293;SDS011;39181;53.440;5.644;2022-08-01T03:37:44;15.65;;;2.25;;
53293;SDS011;39181;53.440;5.644;2022-08-01T03:40:25;18.15;;;2.58;;
53293;SDS011;39181;53.440;5.644;2022-08-01T03:43:00;13.30;;;2.60;;
53293;SDS011;39181;53.440;5.644;2022-08-01T03:45:30;19.27;;;2.63;;
53293;SDS011;39181;53.440;5.644;2022-08-01T03:48:01;17.67;;;3.90;;
53293;SDS011;39181;53.440;5.644;2022-08-01T03:50:30;14.32;;;2.22;;
53293;SDS011;39181;53.440;5.644;2022-08-01T03:52:59;18.15;;;2.83;;
53293;SDS011;39181;53.440;5.644;2022-08-01T03:55:26;20.35;;;3.42;;
53293;SDS011;39181;53.440;5.644;2022-08-01T03:57:53;18.23;;;3.45;;
53293;SDS011;39181;53.440;5.644;2022-08-01T04:00:20;13.98;;;1.90;;
53293;SDS011;39181;53.440;5.644;2022-08-01T04:02:46;13.23;;;2.42;;
53293;SDS011;39181;53.440;5.644;2022-08-01T04:05:13;22.08;;;2.25;;
53293;SDS011;39181;53.440;5.644;2022-08-01T04:07:40;21.52;;;3.55;;
53293;SDS011;39181;53.440;5.644;2022-08-01T04:10:09;18.85;;;2.60;;
53293;SDS011;39181;53.440;5.644;2022-08-01T04:12:36;14.13;;;3.20;;
53293;SDS011;39181;53.440;5.644;2022-08-01T04:15:02;12.73;;;2.95;;
53293;SDS011;39181;53.440;5.644;2022-08-01T04:17:29;16.10;;;2.28;;
53293;SDS011;39181;53.440;5.644;2022-08-01T04:19:54;27.55;;;3.20;;
53293;SDS011;39181;53.440;5.644;2022-08-01T04:22:20;16.17;;;2.88;;
53293;SDS011;39181;53.440;5.644;2022-08-01T04:24:49;9.88;;;2.45;;
53293;SDS011;39181;53.440;5.644;2022-08-01T04:29:49;18.02;;;2.50;;
53293;SDS011;39181;53.440;5.644;2022-08-01T04:32:17;14.18;;;2.03;;
53293;SDS011;39181;53.440;5.644;2022-08-01T04:34:46;14.35;;;2.35;;
53293;SDS011;39181;53.440;5.644;2022-08-01T04:37:12;15.43;;;2.42;;
53293;SDS011;39181;53.440;5.644;2022-08-01T04:39:41;14.93;;;2.47;;
53293;SDS011;39181;53.440;5.644;2022-08-01T04:42:07;21.00;;;2.50;;
53293;SDS011;39181;53.440;5.644;2022-08-01T04:44:35;15.82;;;2.65;;
53293;SDS011;39181;53.440;5.644;2022-08-01T04:47:02;11.65;;;1.63;;
53293;SDS011;39181;53.440;5.644;2022-08-01T04:49:33;17.30;;;2.20;;
53293;SDS011;39181;53.440;5.644;2022-08-01T04:51:59;13.27;;;2.08;;
53293;SDS011;39181;53.440;5.644;2022-08-01T04:54:28;12.68;;;3.13;;
53293;SDS011;39181;53.440;5.644;2022-08-01T04:56:58;16.20;;;2.22;;
53293;SDS011;39181;53.440;5.644;2022-08-01T04:59:25;17.40;;;2.80;;
53293;SDS011;39181;53.440;5.644;2022-08-01T05:02:10;13.23;;;2.13;;
53293;SDS011;39181;53.440;5.644;2022-08-01T05:04:38;11.37;;;1.57;;
53293;SDS011;39181;53.440;5.644;2022-08-01T05:07:05;10.32;;;1.75;;
53293;SDS011;39181;53.440;5.644;2022-08-01T05:09:31;14.55;;;2.83;;
53293;SDS011;39181;53.440;5.644;2022-08-01T05:11:58;15.75;;;2.33;;
53293;SDS011;39181;53.440;5.644;2022-08-01T05:14:26;15.75;;;2.22;;
53293;SDS011;39181;53.440;5.644;2022-08-01T05:16:52;11.65;;;2.15;;
53293;SDS011;39181;53.440;5.644;2022-08-01T05:19:18;11.02;;;2.10;;
53293;SDS011;39181;53.440;5.644;2022-08-01T05:21:43;17.13;;;2.13;;
53293;SDS011;39181;53.440;5.644;2022-08-01T05:24:09;17.42;;;2.92;;
53293;SDS011;39181;53.440;5.644;2022-08-01T05:26:35;12.35;;;2.25;;
53293;SDS011;39181;53.440;5.644;2022-08-01T05:29:00;15.43;;;1.80;;
53293;SDS011;39181;53.440;5.644;2022-08-01T05:31:26;14.82;;;2.05;;
53293;SDS011;39181;53.440;5.644;2022-08-01T05:33:52;12.95;;;3.35;;
53293;SDS011;39181;53.440;5.644;2022-08-01T05:36:18;16.60;;;2.33;;
53293;SDS011;39181;53.440;5.644;2022-08-01T05:38:43;10.38;;;1.45;;
53293;SDS011;39181;53.440;5.644;2022-08-01T05:41:10;9.80;;;1.40;;
53293;SDS011;39181;53.440;5.644;2022-08-01T05:43:35;15.50;;;1.83;;
53293;SDS011;39181;53.440;5.644;2022-08-01T05:46:01;15.40;;;1.80;;
53293;SDS011;39181;53.440;5.644;2022-08-01T05:48:26;13.85;;;1.60;;
53293;SDS011;39181;53.440;5.644;2022-08-01T05:50:53;10.73;;;1.63;;
53293;SDS011;39181;53.440;5.644;2022-08-01T05:53:19;10.05;;;1.35;;
53293;SDS011;39181;53.440;5.644;2022-08-01T05:55:45;16.08;;;1.95;;
53293;SDS011;39181;53.440;5.644;2022-08-01T05:58:10;15.15;;;1.83;;
53293;SDS011;39181;53.440;5.644;2022-08-01T06:00:36;15.23;;;1.90;;
53293;SDS011;39181;53.440;5.644;2022-08-01T06:03:02;14.77;;;1.63;;
53293;SDS011;39181;53.440;5.644;2022-08-01T06:05:27;12.15;;;1.85;;
53293;SDS011;39181;53.440;5.644;2022-08-01T06:07:53;14.07;;;2.30;;
53293;SDS011;39181;53.440;5.644;2022-08-01T06:10:19;11.32;;;1.83;;
53293;SDS011;39181;53.440;5.644;2022-08-01T06:12:44;12.43;;;2.03;;
53293;SDS011;39181;53.440;5.644;2022-08-01T06:15:10;4.97;;;1.58;;
53293;SDS011;39181;53.440;5.644;2022-08-01T06:17:36;10.45;;;1.70;;
53293;SDS011;39181;53.440;5.644;2022-08-01T06:20:02;12.13;;;1.33;;
53293;SDS011;39181;53.440;5.644;2022-08-01T06:22:28;13.70;;;1.60;;
53293;SDS011;39181;53.440;5.644;2022-08-01T06:24:54;11.20;;;1.63;;
53293;SDS011;39181;53.440;5.644;2022-08-01T06:27:20;11.50;;;2.03;;
53293;SDS011;39181;53.440;5.644;2022-08-01T06:29:47;10.13;;;1.95;;
53293;SDS011;39181;53.440;5.644;2022-08-01T06:32:13;8.48;;;1.52;;
53293;SDS011;39181;53.440;5.644;2022-08-01T06:34:39;11.80;;;1.40;;
53293;SDS011;39181;53.440;5.644;2022-08-01T06:37:04;13.70;;;2.28;;
53293;SDS011;39181;53.440;5.644;2022-08-01T06:39:30;8.73;;;1.48;;
53293;SDS011;39181;53.440;5.644;2022-08-01T06:41:55;7.80;;;1.35;;
53293;SDS011;39181;53.440;5.644;2022-08-01T06:44:21;7.65;;;1.60;;
53293;SDS011;39181;53.440;5.644;2022-08-01T06:46:46;11.60;;;1.98;;
53293;SDS011;39181;53.440;5.644;2022-08-01T06:49:12;12.00;;;1.80;;
53293;SDS011;39181;53.440;5.644;2022-08-01T06:51:37;10.10;;;1.40;;
53293;SDS011;39181;53.440;5.644;2022-08-01T06:54:03;12.02;;;1.70;;
53293;SDS011;39181;53.440;5.644;2022-08-01T06:56:29;8.38;;;1.65;;
53293;SDS011;39181;53.440;5.644;2022-08-01T06:58:54;9.52;;;1.33;;
53293;SDS011;39181;53.440;5.644;2022-08-01T07:01:25;8.93;;;1.48;;
53293;SDS011;39181;53.440;5.644;2022-08-01T07:03:54;8.80;;;1.17;;
53293;SDS011;39181;53.440;5.644;2022-08-01T07:06:20;6.40;;;1.20;;
53293;SDS011;39181;53.440;5.644;2022-08-01T07:08:47;11.75;;;1.52;;
53293;SDS011;39181;53.440;5.644;2022-08-01T07:11:13;9.00;;;1.20;;
53293;SDS011;39181;53.440;5.644;2022-08-01T07:13:38;8.30;;;1.45;;
53293;SDS011;39181;53.440;5.644;2022-08-01T07:16:04;7.50;;;1.70;;
53293;SDS011;39181;53.440;5.644;2022-08-01T07:18:29;11.00;;;1.75;;
53293;SDS011;39181;53.440;5.644;2022-08-01T07:20:55;11.82;;;1.45;;
53293;SDS011;39181;53.440;5.644;2022-08-01T07:23:21;4.57;;;1.45;;
53293;SDS011;39181;53.440;5.644;2022-08-01T07:25:46;8.75;;;1.45;;
53293;SDS011;39181;53.440;5.644;2022-08-01T07:28:14;10.07;;;1.25;;
53293;SDS011;39181;53.440;5.644;2022-08-01T07:30:40;7.05;;;1.35;;
53293;SDS011;39181;53.440;5.644;2022-08-01T07:33:07;10.00;;;1.27;;
53293;SDS011;39181;53.440;5.644;2022-08-01T07:35:33;5.93;;;1.40;;
53293;SDS011;39181;53.440;5.644;2022-08-01T07:37:59;9.80;;;1.45;;
53293;SDS011;39181;53.440;5.644;2022-08-01T07:40:24;9.65;;;1.38;;
53293;SDS011;39181;53.440;5.644;2022-08-01T07:42:50;7.57;;;1.13;;
53293;SDS011;39181;53.440;5.644;2022-08-01T07:45:15;11.52;;;1.48;;
53293;SDS011;39181;53.440;5.644;2022-08-01T07:47:41;9.45;;;1.50;;
53293;SDS011;39181;53.440;5.644;2022-08-01T07:50:07;7.15;;;1.30;;
53293;SDS011;39181;53.440;5.644;2022-08-01T07:52:33;9.52;;;1.27;;
53293;SDS011;39181;53.440;5.644;2022-08-01T07:54:58;8.32;;;1.30;;
53293;SDS011;39181;53.440;5.644;2022-08-01T07:57:24;6.63;;;1.00;;
53293;SDS011;39181;53.440;5.644;2022-08-01T07:59:50;5.32;;;1.33;;
53293;SDS011;39181;53.440;5.644;2022-08-01T08:02:16;7.07;;;1.20;;
53293;SDS011;39181;53.440;5.644;2022-08-01T08:04:42;5.22;;;1.00;;
53293;SDS011;39181;53.440;5.644;2022-08-01T08:07:07;11.50;;;1.45;;
53293;SDS011;39181;53.440;5.644;2022-08-01T08:09:33;9.48;;;1.33;;
53293;SDS011;39181;53.440;5.644;2022-08-01T08:11:59;8.50;;;1.15;;
53293;SDS011;39181;53.440;5.644;2022-08-01T08:14:24;6.28;;;1.05;;
53293;SDS011;39181;53.440;5.644;2022-08-01T08:16:50;7.25;;;1.17;;
53293;SDS011;39181;53.440;5.644;2022-08-01T08:19:16;13.68;;;1.63;;
53293;SDS011;39181;53.440;5.644;2022-08-01T08:21:42;10.40;;;1.50;;
53293;SDS011;39181;53.440;5.644;2022-08-01T08:24:08;8.95;;;1.85;;
53293;SDS011;39181;53.440;5.644;2022-08-01T08:26:47;6.88;;;0.98;;
53293;SDS011;39181;53.440;5.644;2022-08-01T08:29:15;7.63;;;1.10;;
53293;SDS011;39181;53.440;5.644;2022-08-01T08:31:41;4.97;;;1.00;;
53293;SDS011;39181;53.440;5.644;2022-08-01T08:34:07;7.15;;;1.10;;
53293;SDS011;39181;53.440;5.644;2022-08-01T08:36:32;8.27;;;1.02;;
53293;SDS011;39181;53.440;5.644;2022-08-01T08:38:58;9.70;;;1.25;;
53293;SDS011;39181;53.440;5.644;2022-08-01T08:41:34;6.40;;;1.00;;
53293;SDS011;39181;53.440;5.644;2022-08-01T08:44:00;7.28;;;1.45;;
53293;SDS011;39181;53.440;5.644;2022-08-01T08:46:27;7.97;;;1.25;;
53293;SDS011;39181;53.440;5.644;2022-08-01T08:48:56;6.45;;;1.52;;
53293;SDS011;39181;53.440;5.644;2022-08-01T08:51:23;7.63;;;1.10;;
53293;SDS011;39181;53.440;5.644;2022-08-01T08:53:53;8.98;;;1.05;;
53293;SDS011;39181;53.440;5.644;2022-08-01T08:56:20;8.35;;;1.40;;
53293;SDS011;39181;53.440;5.644;2022-08-01T08:58:51;6.68;;;1.08;;
53293;SDS011;39181;53.440;5.644;2022-08-01T09:01:17;6.47;;;1.00;;
53293;SDS011;39181;53.440;5.644;2022-08-01T09:03:43;6.82;;;1.20;;
53293;SDS011;39181;53.440;5.644;2022-08-01T09:06:09;7.85;;;1.20;;
53293;SDS011;39181;53.440;5.644;2022-08-01T09:08:35;9.77;;;1.35;;
53293;SDS011;39181;53.440;5.644;2022-08-01T09:11:01;6.88;;;0.93;;
53293;SDS011;39181;53.440;5.644;2022-08-01T09:13:27;11.15;;;1.42;;
53293;SDS011;39181;53.440;5.644;2022-08-01T09:15:53;7.85;;;1.42;;
53293;SDS011;39181;53.440;5.644;2022-08-01T09:21:16;7.32;;;1.23;;
53293;SDS011;39181;53.440;5.644;2022-08-01T09:23:47;4.82;;;0.93;;
53293;SDS011;39181;53.440;5.644;2022-08-01T09:26:16;8.77;;;1.30;;
53293;SDS011;39181;53.440;5.644;2022-08-01T09:28:44;6.80;;;1.25;;
53293;SDS011;39181;53.440;5.644;2022-08-01T09:31:13;4.63;;;0.80;;
53293;SDS011;39181;53.440;5.644;2022-08-01T09:33:49;8.48;;;1.00;;
53293;SDS011;39181;53.440;5.644;2022-08-01T09:36:15;12.48;;;1.27;;
53293;SDS011;39181;53.440;5.644;2022-08-01T09:38:40;4.38;;;1.20;;
53293;SDS011;39181;53.440;5.644;2022-08-01T09:41:07;11.15;;;1.23;;
53293;SDS011;39181;53.440;5.644;2022-08-01T09:43:33;7.35;;;1.38;;
53293;SDS011;39181;53.440;5.644;2022-08-01T09:45:59;6.60;;;1.00;;
53293;SDS011;39181;53.440;5.644;2022-08-01T09:48:29;6.53;;;1.13;;
53293;SDS011;39181;53.440;5.644;2022-08-01T09:50:57;5.65;;;0.90;;
53293;SDS011;39181;53.440;5.644;2022-08-01T09:53:23;6.32;;;0.90;;
53293;SDS011;39181;53.440;5.644;2022-08-01T09:55:49;4.93;;;0.90;;
53293;SDS011;39181;53.440;5.644;2022-08-01T09:58:17;6.22;;;1.23;;
53293;SDS011;39181;53.440;5.644;2022-08-01T10:00:44;5.88;;;1.27;;
53293;SDS011;39181;53.440;5.644;2022-08-01T10:03:28;7.65;;;1.10;;
53293;SDS011;39181;53.440;5.644;2022-08-01T10:05:54;8.07;;;0.95;;
53293;SDS011;39181;53.440;5.644;2022-08-01T10:08:22;5.40;;;0.75;;
53293;SDS011;39181;53.440;5.644;2022-08-01T10:11:09;7.90;;;1.20;;
53293;SDS011;39181;53.440;5.644;2022-08-01T10:13:36;5.65;;;0.95;;
53293;SDS011;39181;53.440;5.644;2022-08-01T10:16:02;4.38;;;0.90;;
53293;SDS011;39181;53.440;5.644;2022-08-01T10:18:30;3.85;;;0.90;;
53293;SDS011;39181;53.440;5.644;2022-08-01T10:20:57;5.78;;;0.98;;
53293;SDS011;39181;53.440;5.644;2022-08-01T10:23:27;4.22;;;1.10;;
53293;SDS011;39181;53.440;5.644;2022-08-01T10:25:55;5.97;;;1.33;;
53293;SDS011;39181;53.440;5.644;2022-08-01T10:28:23;7.32;;;1.20;;
53293;SDS011;39181;53.440;5.644;2022-08-01T10:30:51;7.40;;;0.93;;
53293;SDS011;39181;53.440;5.644;2022-08-01T10:33:17;7.65;;;0.90;;
53293;SDS011;39181;53.440;5.644;2022-08-01T10:35:44;4.10;;;0.80;;
53293;SDS011;39181;53.440;5.644;2022-08-01T10:38:11;8.18;;;1.10;;
53293;SDS011;39181;53.440;5.644;2022-08-01T10:40:37;3.33;;;0.68;;
53293;SDS011;39181;53.440;5.644;2022-08-01T10:43:04;6.57;;;0.90;;
53293;SDS011;39181;53.440;5.644;2022-08-01T10:45:30;6.13;;;0.80;;
53293;SDS011;39181;53.440;5.644;2022-08-01T10:47:58;5.90;;;1.10;;
53293;SDS011;39181;53.440;5.644;2022-08-01T10:50:30;5.25;;;0.90;;
53293;SDS011;39181;53.440;5.644;2022-08-01T10:53:12;6.18;;;1.10;;
53293;SDS011;39181;53.440;5.644;2022-08-01T10:58:26;4.07;;;1.00;;
53293;SDS011;39181;53.440;5.644;2022-08-01T11:01:18;8.93;;;1.08;;
53293;SDS011;39181;53.440;5.644;2022-08-01T11:03:46;4.55;;;0.90;;
53293;SDS011;39181;53.440;5.644;2022-08-01T11:06:24;5.22;;;0.88;;
53293;SDS011;39181;53.440;5.644;2022-08-01T11:09:14;5.85;;;1.10;;
53293;SDS011;39181;53.440;5.644;2022-08-01T11:12:06;6.13;;;0.80;;
53293;SDS011;39181;53.440;5.644;2022-08-01T11:20:16;5.55;;;1.27;;
53293;SDS011;39181;53.440;5.644;2022-08-01T11:30:39;7.15;;;1.20;;
53293;SDS011;39181;53.440;5.644;2022-08-01T11:33:06;5.13;;;1.27;;
53293;SDS011;39181;53.440;5.644;2022-08-01T11:35:32;5.47;;;1.08;;
53293;SDS011;39181;53.440;5.644;2022-08-01T11:38:21;6.80;;;0.95;;
53293;SDS011;39181;53.440;5.644;2022-08-01T11:44:04;9.43;;;1.63;;
53293;SDS011;39181;53.440;5.644;2022-08-01T11:46:56;6.18;;;0.88;;
53293;SDS011;39181;53.440;5.644;2022-08-01T11:54:50;8.30;;;0.90;;
53293;SDS011;39181;53.440;5.644;2022-08-01T11:57:23;4.30;;;0.98;;
53293;SDS011;39181;53.440;5.644;2022-08-01T11:59:55;6.25;;;1.10;;
53293;SDS011;39181;53.440;5.644;2022-08-01T12:02:23;5.60;;;1.33;;
53293;SDS011;39181;53.440;5.644;2022-08-01T12:05:08;4.82;;;0.93;;
53293;SDS011;39181;53.440;5.644;2022-08-01T12:07:37;5.68;;;1.00;;
53293;SDS011;39181;53.440;5.644;2022-08-01T12:10:08;8.82;;;0.90;;
53293;SDS011;39181;53.440;5.644;2022-08-01T12:12:48;6.70;;;1.30;;
53293;SDS011;39181;53.440;5.644;2022-08-01T12:15:15;7.07;;;1.17;;
53293;SDS011;39181;53.440;5.644;2022-08-01T12:17:46;9.30;;;0.98;;
53293;SDS011;39181;53.440;5.644;2022-08-01T12:20:13;7.00;;;1.20;;
53293;SDS011;39181;53.440;5.644;2022-08-01T12:22:40;5.97;;;1.48;;
53293;SDS011;39181;53.440;5.644;2022-08-01T12:25:06;5.55;;;0.95;;
53293;SDS011;39181;53.440;5.644;2022-08-01T12:27:34;4.57;;;0.88;;
53293;SDS011;39181;53.440;5.644;2022-08-01T12:30:00;5.38;;;1.10;;
53293;SDS011;39181;53.440;5.644;2022-08-01T12:32:27;3.65;;;1.10;;
53293;SDS011;39181;53.440;5.644;2022-08-01T12:34:54;8.27;;;1.10;;
53293;SDS011;39181;53.440;5.644;2022-08-01T12:37:20;4.30;;;0.70;;
53293;SDS011;39181;53.440;5.644;2022-08-01T12:39:47;6.07;;;1.00;;
53293;SDS011;39181;53.440;5.644;2022-08-01T12:42:13;8.35;;;1.35;;
53293;SDS011;39181;53.440;5.644;2022-08-01T12:44:39;5.20;;;1.02;;
53293;SDS011;39181;53.440;5.644;2022-08-01T12:47:06;6.90;;;1.02;;
53293;SDS011;39181;53.440;5.644;2022-08-01T12:49:35;6.80;;;1.45;;
53293;SDS011;39181;53.440;5.644;2022-08-01T12:52:01;7.50;;;1.00;;
53293;SDS011;39181;53.440;5.644;2022-08-01T12:54:28;6.70;;;1.00;;
53293;SDS011;39181;53.440;5.644;2022-08-01T12:56:54;9.90;;;1.30;;
53293;SDS011;39181;53.440;5.644;2022-08-01T12:59:23;7.13;;;1.13;;
53293;SDS011;39181;53.440;5.644;2022-08-01T13:01:54;3.33;;;1.00;;
53293;SDS011;39181;53.440;5.644;2022-08-01T13:04:20;9.05;;;1.30;;
53293;SDS011;39181;53.440;5.644;2022-08-01T13:06:47;5.68;;;1.25;;
53293;SDS011;39181;53.440;5.644;2022-08-01T13:09:17;8.75;;;1.10;;
53293;SDS011;39181;53.440;5.644;2022-08-01T13:11:43;5.57;;;1.27;;
53293;SDS011;39181;53.440;5.644;2022-08-01T13:14:11;4.32;;;0.57;;
53293;SDS011;39181;53.440;5.644;2022-08-01T13:16:52;6.40;;;1.55;;
53293;SDS011;39181;53.440;5.644;2022-08-01T13:19:17;7.50;;;1.02;;
53293;SDS011;39181;53.440;5.644;2022-08-01T13:21:56;6.70;;;1.15;;
53293;SDS011;39181;53.440;5.644;2022-08-01T13:24:25;7.72;;;0.85;;
53293;SDS011;39181;53.440;5.644;2022-08-01T13:26:53;6.65;;;1.50;;
53293;SDS011;39181;53.440;5.644;2022-08-01T13:29:29;4.30;;;1.05;;
53293;SDS011;39181;53.440;5.644;2022-08-01T13:31:55;6.43;;;1.63;;
53293;SDS011;39181;53.440;5.644;2022-08-01T13:34:33;5.93;;;1.10;;
53293;SDS011;39181;53.440;5.644;2022-08-01T13:37:00;7.40;;;1.20;;
53293;SDS011;39181;53.440;5.644;2022-08-01T13:39:28;8.63;;;0.98;;
53293;SDS011;39181;53.440;5.644;2022-08-01T13:42:09;4.68;;;1.30;;
53293;SDS011;39181;53.440;5.644;2022-08-01T13:44:36;4.68;;;0.90;;
53293;SDS011;39181;53.440;5.644;2022-08-01T13:47:02;5.55;;;1.45;;
53293;SDS011;39181;53.440;5.644;2022-08-01T13:49:28;2.78;;;0.85;;
53293;SDS011;39181;53.440;5.644;2022-08-01T13:51:54;6.47;;;1.10;;
53293;SDS011;39181;53.440;5.644;2022-08-01T13:54:19;6.35;;;1.27;;
53293;SDS011;39181;53.440;5.644;2022-08-01T13:56:45;6.07;;;1.00;;
53293;SDS011;39181;53.440;5.644;2022-08-01T13:59:11;7.35;;;1.00;;
53293;SDS011;39181;53.440;5.644;2022-08-01T14:01:37;4.82;;;0.73;;
53293;SDS011;39181;53.440;5.644;2022-08-01T14:04:03;6.20;;;1.05;;
53293;SDS011;39181;53.440;5.644;2022-08-01T14:06:29;3.40;;;0.77;;
53293;SDS011;39181;53.440;5.644;2022-08-01T14:08:56;4.70;;;1.00;;
53293;SDS011;39181;53.440;5.644;2022-08-01T14:11:21;7.35;;;0.80;;
53293;SDS011;39181;53.440;5.644;2022-08-01T14:13:47;4.85;;;1.08;;
53293;SDS011;39181;53.440;5.644;2022-08-01T14:16:12;7.35;;;1.20;;
53293;SDS011;39181;53.440;5.644;2022-08-01T14:18:38;8.13;;;1.52;;
53293;SDS011;39181;53.440;5.644;2022-08-01T14:21:03;4.10;;;0.82;;
53293;SDS011;39181;53.440;5.644;2022-08-01T14:23:29;6.13;;;0.80;;
53293;SDS011;39181;53.440;5.644;2022-08-01T14:25:54;5.18;;;0.95;;
53293;SDS011;39181;53.440;5.644;2022-08-01T14:28:20;5.60;;;0.95;;
53293;SDS011;39181;53.440;5.644;2022-08-01T14:30:46;4.55;;;0.77;;
53293;SDS011;39181;53.440;5.644;2022-08-01T14:33:12;6.22;;;1.00;;
53293;SDS011;39181;53.440;5.644;2022-08-01T14:35:38;5.93;;;0.95;;
53293;SDS011;39181;53.440;5.644;2022-08-01T14:38:04;4.68;;;1.20;;
53293;SDS011;39181;53.440;5.644;2022-08-01T14:40:29;7.60;;;1.20;;
53293;SDS011;39181;53.440;5.644;2022-08-01T14:42:55;6.32;;;1.10;;
53293;SDS011;39181;53.440;5.644;2022-08-01T14:45:20;7.53;;;1.45;;
53293;SDS011;39181;53.440;5.644;2022-08-01T14:47:46;6.25;;;0.75;;
53293;SDS011;39181;53.440;5.644;2022-08-01T14:50:12;6.88;;;1.08;;
53293;SDS011;39181;53.440;5.644;2022-08-01T14:52:40;4.65;;;0.77;;
53293;SDS011;39181;53.440;5.644;2022-08-01T14:55:07;4.30;;;0.70;;
53293;SDS011;39181;53.440;5.644;2022-08-01T14:57:35;6.15;;;1.02;;
53293;SDS011;39181;53.440;5.644;2022-08-01T15:00:02;5.53;;;0.80;;
53293;SDS011;39181;53.440;5.644;2022-08-01T15:02:29;7.32;;;1.27;;
53293;SDS011;39181;53.440;5.644;2022-08-01T15:04:55;6.35;;;1.33;;
53293;SDS011;39181;53.440;5.644;2022-08-01T15:07:21;10.10;;;1.20;;
53293;SDS011;39181;53.440;5.644;2022-08-01T15:09:47;9.95;;;1.40;;
53293;SDS011;39181;53.440;5.644;2022-08-01T15:12:12;10.10;;;0.88;;
53293;SDS011;39181;53.440;5.644;2022-08-01T15:14:38;10.95;;;1.10;;
53293;SDS011;39181;53.440;5.644;2022-08-01T15:17:16;10.00;;;1.25;;
53293;SDS011;39181;53.440;5.644;2022-08-01T15:19:44;9.00;;;1.10;;
53293;SDS011;39181;53.440;5.644;2022-08-01T15:22:10;5.50;;;0.80;;
53293;SDS011;39181;53.440;5.644;2022-08-01T15:24:36;9.15;;;1.67;;
53293;SDS011;39181;53.440;5.644;2022-08-01T15:27:01;9.63;;;1.30;;
53293;SDS011;39181;53.440;5.644;2022-08-01T15:29:27;5.00;;;1.13;;
53293;SDS011;39181;53.440;5.644;2022-08-01T15:31:53;7.65;;;1.45;;